Time;durP1;ratioP1;P1;durP2;ratioP2;P2;SDS_P1;SDS_P2;PMS_P1;PMS_P2;Temp;Humidity;BMP_temperature;BMP_pressure;BME280_temperature;BME280_humidity;BME280_pressure;Samples;Min_cycle;Max_cycle;Signal;HPM_P1;HPM_P2
2022/02/08 00:00:09;;;;;;;17.47;8.53;;;3.40;58.80;;;;;;4990673;28;20201;-68
2022/02/08 00:02:08;;;;;;;14.30;8.53;;;3.40;58.80;;;;;;4983851;28;20558;-68
2022/02/08 00:04:35;;;;;;;20.13;8.60;;;3.40;58.80;;;;;;4992279;28;20225;-68
2022/02/08 00:07:05;;;;;;;14.40;7.93;;;3.40;58.90;;;;;;4993121;28;20215;-68
2022/02/08 00:09:32;;;;;;;14.57;8.57;;;3.40;59.00;;;;;;5000409;28;20549;-68
2022/02/08 00:12:00;;;;;;;14.27;7.87;;;3.40;59.10;;;;;;5009957;28;20220;-68
2022/02/08 00:14:28;;;;;;;26.07;8.87;;;3.40;59.20;;;;;;5009535;28;20547;-68
2022/02/08 00:16:55;;;;;;;15.17;8.03;;;3.40;59.40;;;;;;5003259;28;20208;-68
2022/02/08 00:19:22;;;;;;;16.23;7.97;;;3.40;59.70;;;;;;5004013;28;20511;-68
2022/02/08 00:21:49;;;;;;;15.37;9.67;;;3.40;60.00;;;;;;4997712;28;20644;-68
2022/02/08 00:24:16;;;;;;;14.63;8.67;;;3.40;59.90;;;;;;5000494;28;20266;-68
2022/02/08 00:26:43;;;;;;;13.23;7.87;;;3.50;60.00;;;;;;4997710;28;20255;-68
2022/02/08 00:29:10;;;;;;;12.50;7.33;;;3.50;60.30;;;;;;4999961;28;20203;-68
2022/02/08 00:31:37;;;;;;;14.33;7.70;;;3.40;60.30;;;;;;4999861;28;20275;-68
2022/02/08 00:34:04;;;;;;;18.33;8.40;;;3.40;60.50;;;;;;5000501;28;20841;-68
2022/02/08 00:36:31;;;;;;;16.87;8.33;;;3.40;61.30;;;;;;4993733;28;20205;-68
2022/02/08 00:38:58;;;;;;;16.20;8.37;;;3.40;60.50;;;;;;4997884;28;20201;-68
2022/02/08 00:41:27;;;;;;;13.57;7.83;;;3.40;60.40;;;;;;5001992;28;20301;-68
2022/02/08 00:46:48;;;;;;;13.50;8.10;;;3.30;59.70;;;;;;4994297;28;20256;-68
2022/02/08 00:49:10;;;;;;;14.83;7.20;;;3.40;59.60;;;;;;4987868;28;20680;-68
2022/02/08 00:51:50;;;;;;;10.17;6.13;;;3.40;59.20;;;;;;5002350;28;20224;-68
2022/02/08 00:54:18;;;;;;;11.33;6.13;;;3.40;58.90;;;;;;5001604;28;20225;-68
2022/02/08 00:56:47;;;;;;;12.37;6.00;;;3.50;58.60;;;;;;5004385;28;20606;-68
2022/02/08 00:59:15;;;;;;;9.53;6.27;;;3.50;58.30;;;;;;5003063;28;20633;-68
2022/02/08 01:01:42;;;;;;;12.57;5.63;;;3.50;57.90;;;;;;5003537;28;20225;-68
2022/02/08 01:04:11;;;;;;;9.97;5.57;;;3.50;57.60;;;;;;5005624;28;20204;-68
2022/02/08 01:06:40;;;;;;;8.43;5.53;;;3.60;57.50;;;;;;5000388;28;20209;-68
2022/02/08 01:11:40;;;;;;;7.27;4.20;;;3.70;56.80;;;;;;5000749;28;20208;-68
2022/02/08 01:14:07;;;;;;;6.50;3.87;;;3.70;56.40;;;;;;5002681;28;20717;-68
2022/02/08 01:16:34;;;;;;;7.73;3.63;;;3.80;56.10;;;;;;4999076;28;20212;-68
2022/02/08 01:19:03;;;;;;;7.90;3.57;;;3.90;55.80;;;;;;4989304;28;20214;-68
2022/02/08 01:21:31;;;;;;;5.53;3.43;;;3.90;55.10;;;;;;4993157;28;20310;-67
2022/02/08 01:23:59;;;;;;;5.00;3.20;;;3.90;54.60;;;;;;4993149;28;20211;-68
2022/02/08 01:26:29;;;;;;;6.70;3.57;;;4.00;54.30;;;;;;4997123;28;20256;-68
2022/02/08 01:29:06;;;;;;;5.17;2.87;;;4.00;54.20;;;;;;5002147;28;20212;-68
2022/02/08 01:31:37;;;;;;;3.93;2.77;;;4.00;54.00;;;;;;5004621;28;20204;-68
2022/02/08 01:34:13;;;;;;;6.30;3.10;;;4.00;54.00;;;;;;4987000;28;20211;-68
2022/02/08 01:39:15;;;;;;;4.27;2.50;;;3.90;54.10;;;;;;5000540;28;20226;-67
2022/02/08 01:47:06;;;;;;;5.73;3.10;;;3.80;53.50;;;;;;5001434;28;20202;-67
2022/02/08 01:50:18;;;;;;;5.83;3.10;;;3.80;53.40;;;;;;5003305;28;20205;-67
2022/02/08 01:52:20;;;;;;;3.73;2.70;;;3.80;53.60;;;;;;4995482;28;20280;-67
2022/02/08 01:54:47;;;;;;;5.90;2.80;;;3.70;53.70;;;;;;4997130;28;20228;-67
2022/02/08 01:57:14;;;;;;;7.17;2.80;;;3.70;53.90;;;;;;4992476;28;20503;-67
2022/02/08 01:59:41;;;;;;;5.40;3.00;;;3.60;54.00;;;;;;4997346;28;20342;-67
2022/02/08 02:02:09;;;;;;;5.43;2.80;;;3.60;53.90;;;;;;5000806;28;20331;-68
2022/02/08 02:04:37;;;;;;;4.17;2.73;;;3.50;54.60;;;;;;4995616;28;20210;-68
2022/02/08 02:07:04;;;;;;;3.83;2.70;;;3.50;55.30;;;;;;4992966;28;20201;-68
2022/02/08 02:09:32;;;;;;;3.63;2.60;;;3.40;55.40;;;;;;4997637;28;20248;-68
2022/02/08 02:12:07;;;;;;;3.40;2.17;;;3.40;55.30;;;;;;5001614;28;20233;-68
2022/02/08 02:14:36;;;;;;;3.07;2.20;;;3.30;55.00;;;;;;5008495;28;20229;-68
2022/02/08 02:17:04;;;;;;;2.93;2.33;;;3.30;54.70;;;;;;5010154;28;20780;-68
2022/02/08 02:19:32;;;;;;;3.83;2.50;;;3.30;54.40;;;;;;5005242;28;20644;-68
2022/02/08 02:22:00;;;;;;;5.47;2.70;;;3.40;54.30;;;;;;4992478;28;20605;-68
2022/02/08 02:24:28;;;;;;;6.27;2.50;;;3.40;54.30;;;;;;5010348;28;20208;-68
2022/02/08 02:26:58;;;;;;;2.67;1.80;;;3.40;54.20;;;;;;4990762;28;20248;-67
2022/02/08 02:29:26;;;;;;;4.00;2.10;;;3.40;54.90;;;;;;4987715;28;20299;-67
2022/02/08 02:31:57;;;;;;;3.53;1.80;;;3.40;54.10;;;;;;5008437;28;20535;-67
2022/02/08 02:34:26;;;;;;;6.87;2.07;;;3.40;54.20;;;;;;4997756;28;20209;-67
2022/02/08 02:36:54;;;;;;;3.73;2.20;;;3.40;53.80;;;;;;4989846;28;20216;-67
2022/02/08 02:39:26;;;;;;;2.23;1.97;;;3.40;53.50;;;;;;4989619;28;20599;-67
2022/02/08 02:41:55;;;;;;;3.30;2.10;;;3.40;53.30;;;;;;5001095;28;20229;-67
2022/02/08 02:44:24;;;;;;;3.50;2.13;;;3.40;53.40;;;;;;4996946;28;20254;-68
2022/02/08 02:46:52;;;;;;;7.33;2.77;;;3.40;53.50;;;;;;5002987;28;20216;-68
2022/02/08 02:49:27;;;;;;;9.37;2.73;;;3.30;53.70;;;;;;5005562;28;20207;-68
2022/02/08 02:52:06;;;;;;;4.77;2.67;;;3.40;54.40;;;;;;5009262;28;20219;-68
2022/02/08 02:54:37;;;;;;;3.33;2.50;;;3.30;54.60;;;;;;5009376;28;20299;-68
2022/02/08 02:57:05;;;;;;;5.33;2.80;;;3.20;54.30;;;;;;4997193;28;20224;-68
2022/02/08 02:59:34;;;;;;;3.23;2.37;;;3.20;54.50;;;;;;5003421;28;20204;-68
2022/02/08 03:04:48;;;;;;;8.77;2.63;;;3.10;54.40;;;;;;5009549;28;20228;-67
2022/02/08 03:20:49;;;;;;;3.13;2.13;;;2.60;57.20;;;;;;4996888;28;20563;-68
2022/02/08 03:23:19;;;;;;;4.40;2.73;;;2.50;57.50;;;;;;5001014;28;20550;-68
2022/02/08 03:25:51;;;;;;;4.07;2.33;;;2.40;57.50;;;;;;5000752;28;20581;-68
2022/02/08 03:28:27;;;;;;;4.77;2.87;;;2.40;57.70;;;;;;4995226;28;20624;-68
2022/02/08 03:30:56;;;;;;;4.93;2.77;;;2.30;57.70;;;;;;5009213;28;20262;-68
2022/02/08 03:33:27;;;;;;;5.63;2.37;;;2.30;58.20;;;;;;4978386;28;20296;-70
2022/02/08 03:35:56;;;;;;;3.43;1.93;;;2.30;58.60;;;;;;4998508;28;20227;-70
2022/02/08 03:38:44;;;;;;;5.23;2.60;;;2.20;58.30;;;;;;5007325;28;20220;-70
2022/02/08 03:41:13;;;;;;;4.77;2.37;;;2.20;58.40;;;;;;5018582;28;20222;-71
2022/02/08 03:43:45;;;;;;;5.43;2.47;;;2.20;58.50;;;;;;4995598;28;20277;-67
2022/02/08 03:46:19;;;;;;;4.13;1.97;;;2.10;58.40;;;;;;4994241;28;20356;-70
2022/02/08 03:48:48;;;;;;;3.93;2.43;;;2.20;58.20;;;;;;4999722;28;20633;-68
2022/02/08 03:51:16;;;;;;;4.83;2.63;;;2.20;58.10;;;;;;5001482;28;20220;-68
2022/02/08 03:53:49;;;;;;;3.80;2.27;;;2.20;58.60;;;;;;5002344;28;20224;-68
2022/02/08 03:56:24;;;;;;;3.77;2.37;;;2.20;58.60;;;;;;4997060;28;20208;-70
2022/02/08 03:58:59;;;;;;;3.63;2.33;;;2.20;57.70;;;;;;5003680;28;20259;-70
2022/02/08 04:02:00;;;;;;;3.30;2.10;;;2.10;57.40;;;;;;4997233;28;20207;-70
2022/02/08 04:07:09;;;;;;;4.63;2.57;;;2.10;58.60;;;;;;5001448;28;20339;-70
2022/02/08 04:09:36;;;;;;;3.80;2.40;;;2.10;58.60;;;;;;4997891;28;20234;-70
2022/02/08 04:12:09;;;;;;;6.10;2.70;;;2.10;58.20;;;;;;5001430;28;20224;-71
2022/02/08 04:14:53;;;;;;;2.90;2.27;;;2.10;57.80;;;;;;4996851;28;20200;-70
2022/02/08 04:39:03;;;;;;;5.00;2.20;;;1.90;59.80;;;;;;4999985;28;20665;-71
2022/02/08 04:44:52;;;;;;;3.80;2.13;;;1.90;60.00;;;;;;4979263;28;20209;-71
2022/02/08 04:47:26;;;;;;;2.77;2.07;;;1.90;59.50;;;;;;5000074;28;20294;-68
2022/02/08 04:49:54;;;;;;;3.03;2.00;;;1.90;59.60;;;;;;5000742;28;20699;-67
2022/02/08 04:52:23;;;;;;;2.53;1.87;;;1.90;60.20;;;;;;5000057;28;20219;-67
2022/02/08 04:57:28;;;;;;;2.93;1.83;;;1.90;60.30;;;;;;5001112;28;20212;-67
2022/02/08 05:44:04;;;;;;;3.20;1.70;;;2.20;57.80;;;;;;5002500;28;20212;-67
2022/02/08 05:46:50;;;;;;;3.53;2.20;;;2.20;57.30;;;;;;5006411;28;20580;-70
2022/02/08 05:49:38;;;;;;;3.53;1.77;;;2.20;57.10;;;;;;5002149;28;20275;-70
2022/02/08 05:54:40;;;;;;;2.57;2.13;;;2.10;58.20;;;;;;5005488;28;20218;-70
2022/02/08 05:57:09;;;;;;;3.93;2.10;;;2.00;59.00;;;;;;5003666;28;20204;-70
2022/02/08 05:59:37;;;;;;;2.23;1.70;;;2.00;59.40;;;;;;4995714;28;20213;-70
2022/02/08 06:02:06;;;;;;;2.77;2.17;;;1.90;59.50;;;;;;5005269;28;20247;-70
2022/02/08 06:05:05;;;;;;;3.30;1.77;;;1.90;59.70;;;;;;4984415;28;20221;-70
2022/02/08 06:07:33;;;;;;;4.57;2.10;;;1.90;59.90;;;;;;5001726;28;20216;-70
2022/02/08 06:10:00;;;;;;;4.27;2.30;;;1.80;59.30;;;;;;5000633;28;20261;-71
2022/02/08 06:12:27;;;;;;;2.50;2.00;;;1.80;59.20;;;;;;5007046;28;20208;-70
2022/02/08 06:15:08;;;;;;;2.83;2.20;;;1.80;59.70;;;;;;5001214;28;20210;-71
2022/02/08 06:17:38;;;;;;;4.20;2.67;;;1.70;59.70;;;;;;5005204;28;20230;-71
2022/02/08 06:20:07;;;;;;;3.67;2.37;;;1.70;59.80;;;;;;5001795;28;20218;-71
2022/02/08 06:22:36;;;;;;;3.50;2.23;;;1.80;59.80;;;;;;4979932;28;20218;-71
2022/02/08 06:25:04;;;;;;;6.10;2.17;;;1.80;59.60;;;;;;5012400;28;20290;-71
2022/02/08 06:27:31;;;;;;;4.50;1.93;;;1.80;59.50;;;;;;5006651;28;20245;-72
2022/02/08 06:30:00;;;;;;;3.97;2.23;;;1.90;59.40;;;;;;4987638;28;20549;-72
2022/02/08 06:32:28;;;;;;;3.63;1.90;;;1.90;59.50;;;;;;4999880;28;20193;-71
2022/02/08 06:34:57;;;;;;;4.33;2.20;;;1.80;61.80;;;;;;4980848;28;20205;-71
2022/02/08 06:37:27;;;;;;;4.47;2.00;;;1.90;61.80;;;;;;4995322;28;20528;-71
2022/02/08 06:39:55;;;;;;;2.97;2.00;;;1.80;61.70;;;;;;5005422;28;20300;-71
2022/02/08 06:42:22;;;;;;;2.83;1.70;;;1.80;61.50;;;;;;5003118;28;20224;-69
2022/02/08 06:44:49;;;;;;;4.13;2.20;;;1.80;60.80;;;;;;5002538;28;20204;-69
2022/02/08 06:47:16;;;;;;;2.53;1.60;;;1.80;60.50;;;;;;4999898;28;20239;-71
2022/02/08 06:49:44;;;;;;;11.33;4.13;;;1.80;60.80;;;;;;4995070;28;20732;-72
2022/02/08 06:52:11;;;;;;;35.10;11.57;;;1.90;60.80;;;;;;4997583;28;20629;-72
2022/02/08 06:54:38;;;;;;;24.67;8.17;;;2.00;61.10;;;;;;4998990;28;20207;-72
2022/02/08 06:57:10;;;;;;;21.93;7.20;;;2.20;60.00;;;;;;4996364;28;20630;-72
2022/02/08 06:59:38;;;;;;;12.97;4.57;;;2.40;58.90;;;;;;5003275;28;20216;-68
2022/02/08 07:02:06;;;;;;;9.17;2.83;;;2.60;58.20;;;;;;5005976;28;20221;-69
2022/02/08 07:04:33;;;;;;;8.57;2.70;;;3.00;57.40;;;;;;4999734;28;20221;-67
2022/02/08 07:07:00;;;;;;;7.67;2.73;;;3.50;56.20;;;;;;5000920;28;20648;-70
2022/02/08 07:09:27;;;;;;;8.73;2.83;;;4.00;55.20;;;;;;5000077;28;20193;-70
2022/02/08 07:11:57;;;;;;;3.50;2.10;;;4.70;53.60;;;;;;4971791;28;20231;-68
2022/02/08 07:14:28;;;;;;;4.77;2.47;;;5.30;52.70;;;;;;4995469;28;20201;-68
2022/02/08 07:16:56;;;;;;;5.47;2.23;;;5.70;50.50;;;;;;5001031;28;20223;-67
2022/02/08 07:19:23;;;;;;;5.70;2.43;;;6.10;49.30;;;;;;5003277;28;20212;-68
2022/02/08 07:21:51;;;;;;;11.20;3.37;;;6.50;48.40;;;;;;5001952;28;20212;-67
2022/02/08 07:24:19;;;;;;;6.77;3.50;;;6.70;47.60;;;;;;4994490;28;20229;-67
2022/02/08 07:26:47;;;;;;;7.10;3.30;;;7.10;47.10;;;;;;5007666;28;20239;-67
2022/02/08 07:29:15;;;;;;;4.93;2.93;;;7.40;46.90;;;;;;4999769;28;20260;-68
2022/02/08 07:31:54;;;;;;;11.43;4.53;;;7.70;46.50;;;;;;4999057;28;20307;-68
2022/02/08 07:34:42;;;;;;;9.33;4.27;;;8.00;46.30;;;;;;4998863;28;20198;-70
2022/02/08 07:37:17;;;;;;;9.67;3.57;;;8.30;46.00;;;;;;4994289;28;20205;-71
2022/02/08 07:39:48;;;;;;;10.20;3.27;;;8.50;45.50;;;;;;5001860;28;20209;-68
2022/02/08 07:42:15;;;;;;;5.50;2.53;;;8.70;45.40;;;;;;5002364;28;20215;-68
2022/02/08 07:44:46;;;;;;;4.63;3.10;;;8.80;45.40;;;;;;4998437;28;20317;-68
2022/02/08 07:47:20;;;;;;;4.03;2.97;;;8.70;45.20;;;;;;4995858;28;20279;-68
2022/02/08 07:49:47;;;;;;;7.00;2.80;;;8.40;45.90;;;;;;5009591;28;20199;-68
2022/02/08 07:52:15;;;;;;;4.87;2.73;;;8.10;46.70;;;;;;5004093;28;20607;-68
2022/02/08 07:54:43;;;;;;;5.63;2.60;;;8.00;47.70;;;;;;5001403;28;20219;-68
2022/02/08 07:57:10;;;;;;;4.30;2.47;;;8.00;47.40;;;;;;5000425;28;20216;-68
2022/02/08 07:59:37;;;;;;;4.80;2.93;;;8.00;47.00;;;;;;4997372;28;20205;-68
2022/02/08 08:02:04;;;;;;;9.70;3.93;;;8.00;47.20;;;;;;5006440;28;20286;-71
2022/02/08 08:04:31;;;;;;;8.10;3.23;;;8.00;47.00;;;;;;5015724;28;20209;-71
2022/02/08 08:07:00;;;;;;;6.63;3.00;;;8.00;46.70;;;;;;5002638;28;20737;-71
2022/02/08 08:09:28;;;;;;;7.60;2.17;;;7.90;46.60;;;;;;4995229;28;20202;-71
2022/02/08 08:11:55;;;;;;;5.63;2.63;;;7.90;46.50;;;;;;4994707;28;20216;-71
2022/02/08 08:14:26;;;;;;;6.60;2.60;;;7.80;46.40;;;;;;4997253;28;20639;-71
2022/02/08 08:17:36;;;;;;;4.30;2.40;;;7.80;46.70;;;;;;5001580;28;20585;-71
2022/02/08 08:19:41;;;;;;;7.27;3.10;;;7.80;47.80;;;;;;4996971;28;20277;-71
2022/02/08 08:22:09;;;;;;;8.00;3.00;;;7.90;47.20;;;;;;4993338;28;20214;-71
2022/02/08 08:24:36;;;;;;;7.53;2.60;;;7.90;47.50;;;;;;4999503;28;20612;-71
2022/02/08 08:27:06;;;;;;;9.00;2.83;;;7.80;47.70;;;;;;5001016;28;20253;-71
2022/02/08 08:29:33;;;;;;;4.77;2.57;;;7.90;48.00;;;;;;5003787;28;20235;-71
2022/02/08 08:32:04;;;;;;;3.37;2.53;;;7.90;47.30;;;;;;5009670;28;20195;-71
2022/02/08 08:34:32;;;;;;;5.50;2.33;;;7.90;47.40;;;;;;4991225;28;20625;-71
2022/02/08 08:36:59;;;;;;;5.23;2.73;;;8.00;47.50;;;;;;5002604;28;20523;-71
2022/02/08 08:39:34;;;;;;;4.77;2.33;;;8.00;47.20;;;;;;5005266;28;20211;-71
2022/02/08 08:49:58;;;;;;;7.37;2.93;;;8.40;46.90;;;;;;5007369;28;20216;-71
2022/02/08 08:52:46;;;;;;;7.03;2.17;;;8.40;46.30;;;;;;5004943;28;20675;-71
2022/02/08 08:55:16;;;;;;;5.10;2.33;;;8.50;45.20;;;;;;5005322;28;20200;-71
2022/02/08 08:57:44;;;;;;;9.30;3.00;;;8.50;45.90;;;;;;5002248;28;20212;-71
2022/02/08 09:00:12;;;;;;;6.93;2.87;;;8.60;46.30;;;;;;5005082;28;20222;-71
2022/02/08 09:02:39;;;;;;;7.13;2.90;;;8.70;46.30;;;;;;5008664;28;20271;-71
2022/02/08 09:05:11;;;;;;;7.33;3.00;;;8.80;45.60;;;;;;5005102;28;20209;-71
2022/02/08 09:07:41;;;;;;;6.33;2.97;;;8.90;45.80;;;;;;4997630;28;20246;-71
2022/02/08 09:10:12;;;;;;;7.20;3.10;;;8.90;45.80;;;;;;5003759;28;20617;-71
2022/02/08 09:13:33;;;;;;;6.07;3.40;;;9.00;46.10;;;;;;4998751;28;20209;-71
2022/02/08 09:20:49;;;;;;;3.80;2.73;;;9.30;46.00;;;;;;4985349;28;20296;-71
2022/02/08 09:23:56;;;;;;;4.77;2.70;;;9.40;45.90;;;;;;4979251;28;20298;-71
2022/02/08 09:29:19;;;;;;;5.77;2.47;;;9.70;45.70;;;;;;4986398;28;20312;-71
2022/02/08 09:31:48;;;;;;;3.87;2.77;;;9.80;45.50;;;;;;4989979;28;20216;-70
2022/02/08 09:34:15;;;;;;;5.83;2.63;;;9.90;45.50;;;;;;4983467;28;20614;-70
2022/02/08 09:36:42;;;;;;;7.23;3.17;;;10.00;44.70;;;;;;4986639;28;20224;-71
2022/02/08 09:39:09;;;;;;;3.77;2.10;;;10.10;44.40;;;;;;4985904;28;20268;-71
2022/02/08 09:41:37;;;;;;;4.13;2.47;;;10.20;44.10;;;;;;4992147;28;20520;-71
2022/02/08 09:44:04;;;;;;;5.27;3.10;;;10.30;43.80;;;;;;4978673;28;20651;-68
2022/02/08 09:46:35;;;;;;;6.97;3.37;;;10.30;43.30;;;;;;4997733;28;20209;-68
2022/02/08 09:49:03;;;;;;;7.30;2.73;;;10.40;42.90;;;;;;4982952;28;20518;-68
2022/02/08 09:51:30;;;;;;;8.30;3.33;;;10.50;42.60;;;;;;4998693;28;20217;-68
2022/02/08 09:54:01;;;;;;;4.93;2.77;;;10.50;42.70;;;;;;4965757;28;20552;-68
2022/02/08 09:56:28;;;;;;;5.97;2.70;;;10.60;43.00;;;;;;4975507;28;20283;-67
2022/02/08 09:58:55;;;;;;;5.03;3.10;;;10.60;42.70;;;;;;4981126;28;20215;-67
2022/02/08 10:01:24;;;;;;;4.47;3.03;;;10.70;42.40;;;;;;4984973;28;20392;-67
2022/02/08 10:03:52;;;;;;;4.60;2.87;;;10.80;41.90;;;;;;4985709;28;20241;-69
2022/02/08 10:06:20;;;;;;;7.33;2.70;;;10.90;41.40;;;;;;4973755;28;20627;-70
2022/02/08 10:09:06;;;;;;;4.40;2.67;;;11.00;41.30;;;;;;4992452;28;20232;-70
2022/02/08 10:22:48;;;;;;;5.60;2.70;;;11.40;39.90;;;;;;4980286;28;20298;-67
2022/02/08 10:25:29;;;;;;;4.17;3.07;;;11.50;38.60;;;;;;4983179;28;20206;-70
2022/02/08 10:28:08;;;;;;;3.73;2.63;;;11.50;38.80;;;;;;4979068;28;20329;-67
2022/02/08 10:38:45;;;;;;;3.00;2.27;;;11.70;38.20;;;;;;4981636;28;20554;-69
2022/02/08 10:41:23;;;;;;;3.37;2.47;;;11.80;38.30;;;;;;4975559;28;20275;-70
2022/02/08 10:43:58;;;;;;;3.70;2.27;;;11.80;38.70;;;;;;4976557;28;20667;-69
2022/02/08 10:46:25;;;;;;;3.63;2.37;;;12.00;38.90;;;;;;4994964;28;20298;-71
2022/02/08 10:49:03;;;;;;;8.30;2.30;;;12.10;38.60;;;;;;4980053;28;20317;-70
2022/02/08 10:51:35;;;;;;;4.03;2.00;;;12.20;37.00;;;;;;4985928;28;20714;-67
2022/02/08 10:54:09;;;;;;;5.33;1.97;;;12.20;36.30;;;;;;4991360;28;20544;-67
2022/02/08 10:56:39;;;;;;;2.50;1.87;;;12.30;37.10;;;;;;5003978;28;20600;-67
2022/02/08 10:59:22;;;;;;;3.93;1.87;;;12.40;37.20;;;;;;4950794;28;20202;-69
2022/02/08 11:02:10;;;;;;;5.30;2.57;;;12.50;37.10;;;;;;4986180;28;20634;-70
2022/02/08 11:04:49;;;;;;;3.87;2.40;;;12.60;37.10;;;;;;4988651;28;20567;-68
2022/02/08 11:12:54;;;;;;;12.03;6.57;;;12.90;36.40;;;;;;4985151;28;20517;-70
2022/02/08 11:16:12;;;;;;;9.90;6.57;;;13.00;36.70;;;;;;4980270;28;20695;-68
2022/02/08 11:21:08;;;;;;;7.33;4.00;;;13.20;36.60;;;;;;4977338;28;20215;-70
2022/02/08 11:23:58;;;;;;;6.67;4.03;;;13.40;36.20;;;;;;4983781;28;20204;-70
2022/02/08 11:26:40;;;;;;;14.27;7.30;;;13.40;35.70;;;;;;4977587;28;20209;-71
2022/02/08 11:29:22;;;;;;;11.73;7.03;;;13.50;35.90;;;;;;4969971;28;20233;-71
2022/02/08 11:32:11;;;;;;;13.20;7.23;;;13.70;35.40;;;;;;4988318;28;20217;-69
2022/02/08 11:43:53;;;;;;;4.33;1.70;;;14.20;36.10;;;;;;4982132;28;20663;-71
2022/02/08 11:46:26;;;;;;;5.10;2.13;;;14.30;35.10;;;;;;4979551;28;20249;-68
2022/02/08 11:57:51;;;;;;;2.33;1.77;;;14.60;34.10;;;;;;4996155;28;20215;-67
2022/02/08 12:00:21;;;;;;;2.40;2.00;;;14.70;34.00;;;;;;4985077;28;20214;-71
2022/02/08 12:05:35;;;;;;;2.23;1.70;;;14.90;33.60;;;;;;4990822;28;20204;-71
2022/02/08 12:08:12;;;;;;;6.80;2.40;;;14.90;33.30;;;;;;4983418;28;20310;-70
2022/02/08 12:10:47;;;;;;;3.53;2.30;;;15.00;33.30;;;;;;4984790;28;20215;-68
2022/02/08 12:53:12;;;;;;;9.73;2.67;;;15.60;33.20;;;;;;4979749;28;20631;-68
2022/02/08 13:01:23;;;;;;;3.37;2.20;;;15.60;32.50;;;;;;4983963;28;20219;-71
2022/02/08 13:24:48;;;;;;;3.03;2.30;;;15.70;32.60;;;;;;4987180;28;20241;-71
2022/02/08 14:09:55;;;;;;;2.50;1.70;;;15.50;32.30;;;;;;4988961;28;20238;-71
2022/02/08 14:13:02;;;;;;;6.67;2.67;;;15.50;31.70;;;;;;4975103;28;20204;-71
2022/02/08 14:15:50;;;;;;;4.87;2.20;;;15.50;31.70;;;;;;4978061;28;20211;-71
2022/02/08 14:21:14;;;;;;;5.27;2.40;;;15.50;32.60;;;;;;4977878;28;20217;-68
2022/02/08 14:48:44;;;;;;;4.27;1.70;;;15.20;32.20;;;;;;4973788;28;20227;-70
2022/02/08 15:10:52;;;;;;;116.87;59.33;;;15.00;31.30;;;;;;4975165;28;20203;-71
2022/02/08 15:13:20;;;;;;;573.27;300.80;;;15.00;31.50;;;;;;4992749;28;20238;-71
2022/02/08 15:16:26;;;;;;;1999.90;916.57;;;14.90;31.60;;;;;;4979570;28;20223;-71
2022/02/08 15:18:55;;;;;;;177.20;93.07;;;14.90;31.20;;;;;;4986494;28;20210;-71
2022/02/08 15:21:29;;;;;;;140.03;74.93;;;14.90;31.40;;;;;;4990999;28;20674;-71
2022/02/08 15:23:56;;;;;;;27.13;14.73;;;14.80;31.70;;;;;;4990456;28;20214;-71
2022/02/08 15:26:25;;;;;;;30.33;14.27;;;14.80;31.40;;;;;;5002090;28;20637;-71
2022/02/08 15:28:52;;;;;;;663.90;320.10;;;14.80;31.80;;;;;;4982016;28;20221;-71
2022/02/08 15:31:19;;;;;;;352.93;179.50;;;14.70;29.70;;;;;;4993543;28;20195;-71
2022/02/08 15:33:47;;;;;;;412.60;181.03;;;14.70;29.40;;;;;;4975538;28;20254;-71
2022/02/08 15:36:16;;;;;;;296.40;134.87;;;14.70;28.80;;;;;;4988165;28;20224;-71
2022/02/08 15:38:50;;;;;;;137.73;61.90;;;14.70;29.50;;;;;;4978482;28;20580;-71
2022/02/08 15:41:18;;;;;;;10.17;5.60;;;14.70;29.70;;;;;;4988734;28;20535;-71
2022/02/08 15:43:45;;;;;;;29.90;14.00;;;14.60;29.60;;;;;;4976443;28;20218;-71
2022/02/08 15:46:19;;;;;;;27.23;11.83;;;14.60;29.60;;;;;;4972882;28;20234;-71
2022/02/08 15:48:49;;;;;;;39.43;12.17;;;14.50;29.60;;;;;;4976877;28;20246;-71
2022/02/08 15:51:41;;;;;;;75.13;26.30;;;14.50;30.20;;;;;;4984252;28;20227;-71
2022/02/08 15:57:10;;;;;;;51.30;16.00;;;14.30;30.30;;;;;;4974277;28;20531;-71
2022/02/08 16:08:13;;;;;;;4.57;1.80;;;14.00;29.70;;;;;;4977970;28;20220;-71
2022/02/08 16:10:57;;;;;;;3.27;1.80;;;13.90;30.00;;;;;;4973392;28;20227;-71
2022/02/08 16:14:20;;;;;;;54.33;14.77;;;13.80;30.40;;;;;;4986089;28;20536;-71
2022/02/08 16:18:59;;;;;;;2.93;1.90;;;13.50;31.20;;;;;;4988009;28;20219;-71
2022/02/08 16:27:15;;;;;;;4.97;1.77;;;13.20;31.80;;;;;;4981008;28;20590;-71
2022/02/08 16:46:40;;;;;;;8.33;4.00;;;12.20;33.70;;;;;;4974608;28;20220;-71
2022/02/08 16:57:08;;;;;;;12.47;4.77;;;11.70;33.80;;;;;;4976789;28;20216;-71
2022/02/08 16:59:36;;;;;;;9.37;2.90;;;11.70;34.10;;;;;;4992180;28;20236;-71
2022/02/08 17:02:06;;;;;;;6.93;3.43;;;11.60;34.10;;;;;;4985327;28;20245;-71
2022/02/08 17:04:35;;;;;;;8.27;2.80;;;11.50;34.10;;;;;;4979167;28;20538;-74
2022/02/08 17:07:03;;;;;;;14.03;4.27;;;11.50;34.10;;;;;;4979862;28;20215;-71
2022/02/08 17:09:46;;;;;;;17.17;4.60;;;11.40;34.60;;;;;;4978955;28;20241;-71
2022/02/08 17:12:30;;;;;;;10.17;3.70;;;11.30;34.80;;;;;;4976864;28;20217;-71
2022/02/08 17:47:39;;;;;;;14.17;3.10;;;9.70;40.40;;;;;;4984766;28;20228;-68
2022/02/08 17:50:13;;;;;;;9.10;4.90;;;9.60;41.30;;;;;;4998739;28;20240;-68
2022/02/08 17:52:41;;;;;;;13.40;3.13;;;9.50;41.10;;;;;;4979625;28;20205;-68
2022/02/08 17:55:10;;;;;;;9.87;4.10;;;9.30;39.90;;;;;;4983609;28;20220;-70
2022/02/08 17:57:38;;;;;;;10.47;4.10;;;9.30;39.70;;;;;;4981770;28;20205;-70
2022/02/08 18:00:08;;;;;;;14.17;4.70;;;9.30;39.40;;;;;;4990340;28;20208;-68
2022/02/08 18:02:40;;;;;;;14.57;4.50;;;9.30;40.60;;;;;;4976816;28;20213;-68
2022/02/08 18:05:08;;;;;;;10.70;4.80;;;9.20;40.70;;;;;;4975140;28;20210;-68
2022/02/08 18:07:36;;;;;;;11.40;4.57;;;9.20;40.70;;;;;;4969862;28;20210;-67
2022/02/08 18:10:08;;;;;;;11.43;4.67;;;9.10;40.30;;;;;;4976933;28;20606;-68
2022/02/08 18:12:37;;;;;;;17.50;5.50;;;9.10;41.50;;;;;;4983225;28;20205;-69
2022/02/08 18:15:10;;;;;;;32.67;11.43;;;9.00;43.00;;;;;;4982727;28;20532;-67
2022/02/08 18:17:43;;;;;;;21.33;4.83;;;8.80;43.30;;;;;;4980607;28;20674;-67
2022/02/08 18:20:56;;;;;;;26.50;11.03;;;8.70;44.10;;;;;;4983036;28;20239;-68
2022/02/08 18:28:31;;;;;;;9.13;5.00;;;8.20;44.20;;;;;;4975606;28;20248;-67
2022/02/08 18:50:36;;;;;;;23.97;7.23;;;8.00;43.20;;;;;;4979731;28;20642;-67
2022/02/08 19:06:01;;;;;;;15.03;5.77;;;7.90;44.40;;;;;;4978191;28;20211;-69
2022/02/08 19:07:40;;;;;;;18.43;8.70;;;7.80;46.40;;;;;;4994449;28;20216;-70
2022/02/08 19:23:46;;;;;;;18.33;9.10;;;7.20;48.20;;;;;;4979977;28;20586;-71
2022/02/08 19:26:17;;;;;;;20.47;8.53;;;7.10;48.60;;;;;;4990569;28;20225;-68
2022/02/08 19:28:45;;;;;;;18.23;8.93;;;7.10;48.70;;;;;;4978227;28;20214;-67
2022/02/08 19:31:12;;;;;;;23.97;9.77;;;6.90;49.00;;;;;;4998818;28;20245;-67
2022/02/08 19:33:40;;;;;;;18.87;9.80;;;6.70;49.00;;;;;;4977259;28;20204;-67
2022/02/08 19:36:07;;;;;;;20.07;10.33;;;6.50;49.10;;;;;;4994544;28;20230;-67
2022/02/08 19:38:38;;;;;;;19.17;10.03;;;6.40;49.30;;;;;;4987019;28;20212;-67
2022/02/08 19:41:05;;;;;;;21.97;10.13;;;6.40;49.70;;;;;;4991334;28;20200;-67
2022/02/08 19:43:33;;;;;;;21.80;9.37;;;6.30;50.40;;;;;;4980014;28;20211;-67
2022/02/08 19:46:00;;;;;;;16.53;8.43;;;6.30;51.20;;;;;;4983161;28;20215;-67
2022/02/08 19:48:27;;;;;;;13.17;8.23;;;6.30;52.40;;;;;;4968736;28;20583;-67
2022/02/08 19:50:54;;;;;;;19.73;10.33;;;6.20;52.50;;;;;;4965766;28;20229;-67
2022/02/08 19:53:22;;;;;;;16.30;9.20;;;6.20;52.20;;;;;;4981423;28;20637;-67
2022/02/08 19:56:07;;;;;;;21.17;9.53;;;6.10;52.20;;;;;;4977643;28;20200;-67
2022/02/08 19:58:34;;;;;;;17.17;9.13;;;6.00;52.30;;;;;;4978259;28;20667;-67
2022/02/08 20:01:15;;;;;;;14.90;8.00;;;5.90;52.50;;;;;;4977655;28;20205;-67
2022/02/08 20:03:53;;;;;;;19.13;8.50;;;5.90;52.50;;;;;;4976038;28;20294;-68
2022/02/08 20:06:21;;;;;;;22.17;9.10;;;5.90;52.40;;;;;;4976544;28;20199;-68
2022/02/08 20:08:49;;;;;;;17.17;8.37;;;5.90;52.60;;;;;;4979644;28;20207;-69
2022/02/08 20:11:16;;;;;;;16.87;7.90;;;5.90;52.60;;;;;;4977958;28;20325;-68
2022/02/08 20:13:51;;;;;;;15.20;8.70;;;5.90;52.60;;;;;;4972142;28;20231;-69
2022/02/08 20:16:22;;;;;;;15.73;8.37;;;6.00;52.60;;;;;;4972778;28;20206;-68
2022/02/08 20:18:53;;;;;;;16.77;8.83;;;5.90;52.40;;;;;;4975256;28;20209;-68
2022/02/08 20:21:22;;;;;;;13.47;8.03;;;5.90;52.10;;;;;;4994270;28;20214;-68
2022/02/08 20:23:51;;;;;;;12.03;8.10;;;5.90;52.10;;;;;;4972833;28;20207;-68
2022/02/08 20:26:22;;;;;;;19.87;8.30;;;5.90;51.50;;;;;;4970419;28;20220;-68
2022/02/08 20:28:52;;;;;;;13.60;8.10;;;6.00;51.20;;;;;;4963577;28;20247;-68
2022/02/08 20:31:20;;;;;;;19.23;8.73;;;6.00;51.20;;;;;;4981366;28;20258;-68
2022/02/08 20:33:48;;;;;;;19.57;9.40;;;6.10;52.40;;;;;;4979881;28;20759;-68
2022/02/08 20:36:16;;;;;;;16.00;9.10;;;6.00;53.10;;;;;;4993279;28;20238;-68
2022/02/08 20:38:48;;;;;;;15.33;9.10;;;6.00;53.80;;;;;;4973719;28;20227;-68
2022/02/08 20:41:19;;;;;;;16.07;8.90;;;5.90;54.00;;;;;;4975688;28;20204;-68
2022/02/08 20:43:47;;;;;;;21.90;10.53;;;5.80;54.40;;;;;;4977552;28;20211;-68
2022/02/08 20:46:16;;;;;;;15.03;8.70;;;5.80;54.80;;;;;;4974869;28;20206;-68